sensor_id;sensor_type;location;lat;lon;timestamp;pressure;altitude;pressure_sealevel;temperature;humidity
80853;BME280;70270;43.434;28.338;2023-08-24T00:01:04;100017.25;;;28.26;68.14
80853;BME280;70270;43.434;28.338;2023-08-24T00:03:49;100009.00;;;28.21;67.80
80853;BME280;70270;43.434;28.338;2023-08-24T00:06:34;100082.78;;;28.76;67.28
80853;BME280;70270;43.434;28.338;2023-08-24T00:09:18;100085.41;;;28.81;66.50
80853;BME280;70270;43.434;28.338;2023-08-24T00:12:03;100073.13;;;28.82;65.78
80853;BME280;70270;43.434;28.338;2023-08-24T00:14:48;100085.31;;;28.95;65.20
80853;BME280;70270;43.434;28.338;2023-08-24T00:17:32;99985.84;;;28.43;64.50
80853;BME280;70270;43.434;28.338;2023-08-24T00:20:22;100075.78;;;28.96;63.97
80853;BME280;70270;43.434;28.338;2023-08-24T00:23:08;100064.25;;;28.89;63.49
80853;BME280;70270;43.434;28.338;2023-08-24T00:25:54;100067.25;;;29.01;63.11
80853;BME280;70270;43.434;28.338;2023-08-24T00:28:42;100072.38;;;29.08;62.82
80853;BME280;70270;43.434;28.338;2023-08-24T00:31:27;100074.03;;;29.09;62.58
80853;BME280;70270;43.434;28.338;2023-08-24T00:34:12;100070.06;;;29.10;62.28
80853;BME280;70270;43.434;28.338;2023-08-24T00:37:01;100074.38;;;29.16;61.79
80853;BME280;70270;43.434;28.338;2023-08-24T00:39:47;100063.66;;;29.09;61.47
80853;BME280;70270;43.434;28.338;2023-08-24T00:42:32;100073.38;;;29.12;60.92
80853;BME280;70270;43.434;28.338;2023-08-24T00:45:17;100063.34;;;29.11;61.86
80853;BME280;70270;43.434;28.338;2023-08-24T00:48:02;100069.06;;;29.06;61.98
80853;BME280;70270;43.434;28.338;2023-08-24T00:50:47;100063.19;;;29.16;61.51
80853;BME280;70270;43.434;28.338;2023-08-24T00:53:32;100068.44;;;29.17;60.85
80853;BME280;70270;43.434;28.338;2023-08-24T00:56:18;100069.25;;;29.18;61.45
80853;BME280;70270;43.434;28.338;2023-08-24T00:59:11;100065.81;;;29.21;61.97
80853;BME280;70270;43.434;28.338;2023-08-24T01:01:56;100068.28;;;29.22;61.83
80853;BME280;70270;43.434;28.338;2023-08-24T01:04:41;100069.13;;;29.23;60.75
80853;BME280;70270;43.434;28.338;2023-08-24T01:07:37;100059.22;;;29.17;61.04
80853;BME280;70270;43.434;28.338;2023-08-24T01:10:39;99971.97;;;28.68;60.40
80853;BME280;70270;43.434;28.338;2023-08-24T01:13:37;100068.19;;;29.36;60.57
80853;BME280;70270;43.434;28.338;2023-08-24T01:16:28;100064.22;;;29.37;61.15
80853;BME280;70270;43.434;28.338;2023-08-24T01:19:25;100061.44;;;29.46;60.50
80853;BME280;70270;43.434;28.338;2023-08-24T01:22:55;100052.59;;;29.44;61.01
80853;BME280;70270;43.434;28.338;2023-08-24T01:28:46;100038.91;;;29.16;61.63
80853;BME280;70270;43.434;28.338;2023-08-24T01:31:34;99977.03;;;28.66;61.14
80853;BME280;70270;43.434;28.338;2023-08-24T01:34:20;100044.13;;;29.01;61.29
80853;BME280;70270;43.434;28.338;2023-08-24T01:37:06;100049.38;;;29.11;61.32
80853;BME280;70270;43.434;28.338;2023-08-24T01:40:14;100041.34;;;29.09;61.07
80853;BME280;70270;43.434;28.338;2023-08-24T01:43:02;100037.09;;;29.20;61.05
80853;BME280;70270;43.434;28.338;2023-08-24T01:45:48;100040.88;;;29.16;61.55
80853;BME280;70270;43.434;28.338;2023-08-24T01:48:38;100042.16;;;29.10;61.04
80853;BME280;70270;43.434;28.338;2023-08-24T01:51:24;100036.91;;;29.08;61.33
80853;BME280;70270;43.434;28.338;2023-08-24T01:54:09;100034.47;;;29.15;61.82
80853;BME280;70270;43.434;28.338;2023-08-24T01:56:58;100037.56;;;29.14;61.31
80853;BME280;70270;43.434;28.338;2023-08-24T01:59:43;100036.25;;;29.11;61.38
80853;BME280;70270;43.434;28.338;2023-08-24T02:02:28;99946.19;;;28.54;61.03
80853;BME280;70270;43.434;28.338;2023-08-24T02:05:12;100040.53;;;29.09;61.57
80853;BME280;70270;43.434;28.338;2023-08-24T02:07:57;100035.44;;;29.11;61.41
80853;BME280;70270;43.434;28.338;2023-08-24T02:10:43;100024.94;;;29.08;61.07
80853;BME280;70270;43.434;28.338;2023-08-24T02:13:29;100022.44;;;28.98;61.59
80853;BME280;70270;43.434;28.338;2023-08-24T02:16:14;100025.75;;;29.00;61.49
80853;BME280;70270;43.434;28.338;2023-08-24T02:18:59;100040.88;;;29.16;61.20
80853;BME280;70270;43.434;28.338;2023-08-24T02:21:44;99976.97;;;28.80;60.98
80853;BME280;70270;43.434;28.338;2023-08-24T02:24:33;100037.91;;;29.21;61.06
80853;BME280;70270;43.434;28.338;2023-08-24T02:27:18;99969.56;;;28.75;60.93
80853;BME280;70270;43.434;28.338;2023-08-24T02:30:03;100058.13;;;29.26;60.67
80853;BME280;70270;43.434;28.338;2023-08-24T02:32:48;100041.88;;;29.37;60.41
80853;BME280;70270;43.434;28.338;2023-08-24T02:35:34;100044.34;;;29.30;60.72
80853;BME280;70270;43.434;28.338;2023-08-24T02:38:19;100047.66;;;29.32;60.23
80853;BME280;70270;43.434;28.338;2023-08-24T02:41:05;100045.50;;;29.29;60.57
80853;BME280;70270;43.434;28.338;2023-08-24T02:43:49;100048.28;;;29.29;60.54
80853;BME280;70270;43.434;28.338;2023-08-24T02:46:35;100032.97;;;29.18;60.46
80853;BME280;70270;43.434;28.338;2023-08-24T02:49:23;100033.97;;;29.22;60.28
80853;BME280;70270;43.434;28.338;2023-08-24T02:52:08;100044.88;;;29.32;60.30
80853;BME280;70270;43.434;28.338;2023-08-24T02:54:54;100042.53;;;29.34;60.18
80853;BME280;70270;43.434;28.338;2023-08-24T02:57:38;100032.16;;;29.26;60.00
80853;BME280;70270;43.434;28.338;2023-08-24T03:00:23;100041.72;;;29.34;60.51
80853;BME280;70270;43.434;28.338;2023-08-24T03:03:08;100040.09;;;29.33;60.26
80853;BME280;70270;43.434;28.338;2023-08-24T03:05:58;100037.75;;;29.26;60.16
80853;BME280;70270;43.434;28.338;2023-08-24T03:08:47;100042.84;;;29.15;60.43
80853;BME280;70270;43.434;28.338;2023-08-24T03:11:32;100052.03;;;29.16;60.46
80853;BME280;70270;43.434;28.338;2023-08-24T03:14:17;100051.84;;;29.21;60.20
80853;BME280;70270;43.434;28.338;2023-08-24T03:17:06;100049.56;;;29.23;60.25
80853;BME280;70270;43.434;28.338;2023-08-24T03:19:51;100046.28;;;29.21;60.19
80853;BME280;70270;43.434;28.338;2023-08-24T03:22:39;100044.78;;;29.15;60.00
80853;BME280;70270;43.434;28.338;2023-08-24T03:25:25;100040.88;;;29.16;59.92
80853;BME280;70270;43.434;28.338;2023-08-24T03:28:11;100044.78;;;29.15;59.87
80853;BME280;70270;43.434;28.338;2023-08-24T03:30:55;100033.31;;;29.08;59.15
80853;BME280;70270;43.434;28.338;2023-08-24T03:33:40;100026.88;;;28.99;58.88
80853;BME280;70270;43.434;28.338;2023-08-24T03:36:25;100046.13;;;29.09;58.78
80853;BME280;70270;43.434;28.338;2023-08-24T03:39:11;100021.44;;;28.94;57.88
80853;BME280;70270;43.434;28.338;2023-08-24T03:41:56;100043.94;;;28.97;57.96
80853;BME280;70270;43.434;28.338;2023-08-24T03:44:41;100036.56;;;28.93;58.26
80853;BME280;70270;43.434;28.338;2023-08-24T03:47:25;100036.56;;;28.93;58.08
80853;BME280;70270;43.434;28.338;2023-08-24T03:50:10;100032.16;;;29.00;58.32
80853;BME280;70270;43.434;28.338;2023-08-24T03:52:55;100051.69;;;29.09;58.18
80853;BME280;70270;43.434;28.338;2023-08-24T03:55:40;100034.59;;;29.10;58.48
80853;BME280;70270;43.434;28.338;2023-08-24T03:58:25;100033.13;;;29.13;58.14
80853;BME280;70270;43.434;28.338;2023-08-24T04:01:11;100037.91;;;29.21;58.41
80853;BME280;70270;43.434;28.338;2023-08-24T04:03:57;100030.84;;;29.23;58.64
80853;BME280;70270;43.434;28.338;2023-08-24T04:06:42;100040.22;;;29.27;58.21
80853;BME280;70270;43.434;28.338;2023-08-24T04:09:28;100042.53;;;29.34;58.16
80853;BME280;70270;43.434;28.338;2023-08-24T04:12:13;100039.91;;;29.29;58.18
80853;BME280;70270;43.434;28.338;2023-08-24T04:14:59;100045.19;;;29.39;57.93
80853;BME280;70270;43.434;28.338;2023-08-24T04:17:44;100053.06;;;29.46;57.72
80853;BME280;70270;43.434;28.338;2023-08-24T04:20:29;100044.22;;;29.52;57.45
80853;BME280;70270;43.434;28.338;2023-08-24T04:23:14;100052.56;;;29.78;56.96
80853;BME280;70270;43.434;28.338;2023-08-24T04:25:58;100058.50;;;29.94;57.10
80853;BME280;70270;43.434;28.338;2023-08-24T04:28:43;100033.66;;;29.84;57.01
80853;BME280;70270;43.434;28.338;2023-08-24T04:31:28;100058.97;;;30.13;56.19
80853;BME280;70270;43.434;28.338;2023-08-24T04:34:12;100049.94;;;30.07;56.00
80853;BME280;70270;43.434;28.338;2023-08-24T04:36:57;99968.31;;;29.50;56.35
80853;BME280;70270;43.434;28.338;2023-08-24T04:39:41;100062.78;;;29.91;56.35
80853;BME280;70270;43.434;28.338;2023-08-24T04:42:26;100059.28;;;29.86;56.88
80853;BME280;70270;43.434;28.338;2023-08-24T04:45:11;100062.09;;;29.77;56.63
80853;BME280;70270;43.434;28.338;2023-08-24T04:47:55;100002.41;;;29.13;57.13
80853;BME280;70270;43.434;28.338;2023-08-24T04:50:44;100047.09;;;29.21;56.51
80853;BME280;70270;43.434;28.338;2023-08-24T04:53:29;100051.84;;;29.04;56.97
80853;BME280;70270;43.434;28.338;2023-08-24T04:56:14;99972.41;;;28.45;57.24
80853;BME280;70270;43.434;28.338;2023-08-24T04:59:00;100042.75;;;28.72;57.84
80853;BME280;70270;43.434;28.338;2023-08-24T05:01:46;100061.94;;;28.82;57.99
80853;BME280;70270;43.434;28.338;2023-08-24T05:04:33;100066.66;;;28.73;58.14
80853;BME280;70270;43.434;28.338;2023-08-24T05:07:18;100056.47;;;28.69;58.30
80853;BME280;70270;43.434;28.338;2023-08-24T05:10:03;99976.72;;;28.20;58.35
80853;BME280;70270;43.434;28.338;2023-08-24T05:12:47;100076.03;;;28.77;58.38
80853;BME280;70270;43.434;28.338;2023-08-24T05:15:32;99956.97;;;28.08;58.37
80853;BME280;70270;43.434;28.338;2023-08-24T05:18:19;100058.50;;;28.86;57.77
80853;BME280;70270;43.434;28.338;2023-08-24T05:21:07;100041.59;;;28.82;57.46
80853;BME280;70270;43.434;28.338;2023-08-24T05:23:55;99989.53;;;28.69;56.76
80853;BME280;70270;43.434;28.338;2023-08-24T05:26:40;100066.69;;;29.30;55.89
80853;BME280;70270;43.434;28.338;2023-08-24T05:29:25;100068.81;;;29.33;54.78
80853;BME280;70270;43.434;28.338;2023-08-24T05:32:09;100074.94;;;29.52;54.54
80853;BME280;70270;43.434;28.338;2023-08-24T05:34:54;100070.91;;;29.19;52.18
80853;BME280;70270;43.434;28.338;2023-08-24T05:37:38;100076.81;;;29.26;53.27
80853;BME280;70270;43.434;28.338;2023-08-24T05:40:23;100075.69;;;29.27;51.66
80853;BME280;70270;43.434;28.338;2023-08-24T05:43:10;100076.81;;;29.26;51.34
80853;BME280;70270;43.434;28.338;2023-08-24T05:45:56;100077.69;;;29.35;51.30
80853;BME280;70270;43.434;28.338;2023-08-24T05:48:40;100077.38;;;29.37;50.48
80853;BME280;70270;43.434;28.338;2023-08-24T05:51:24;100084.03;;;29.18;52.82
80853;BME280;70270;43.434;28.338;2023-08-24T05:54:08;100029.94;;;28.71;54.86
80853;BME280;70270;43.434;28.338;2023-08-24T05:56:53;100016.47;;;28.73;55.23
80853;BME280;70270;43.434;28.338;2023-08-24T05:59:37;100096.19;;;29.22;54.49
80853;BME280;70270;43.434;28.338;2023-08-24T06:02:22;100094.56;;;29.21;54.60
80853;BME280;70270;43.434;28.338;2023-08-24T06:05:09;100087.81;;;29.14;55.08
80853;BME280;70270;43.434;28.338;2023-08-24T06:07:54;100075.97;;;29.17;55.57
80853;BME280;70270;43.434;28.338;2023-08-24T06:10:38;100041.19;;;29.23;53.16
80853;BME280;70270;43.434;28.338;2023-08-24T06:13:23;100041.50;;;29.04;55.57
80853;BME280;70270;43.434;28.338;2023-08-24T06:16:10;100094.63;;;29.47;56.12
80853;BME280;70270;43.434;28.338;2023-08-24T06:18:55;99991.81;;;28.67;51.29
80853;BME280;70270;43.434;28.338;2023-08-24T06:21:39;100110.69;;;29.33;54.94
80853;BME280;70270;43.434;28.338;2023-08-24T06:24:24;100060.28;;;29.29;57.38
80853;BME280;70270;43.434;28.338;2023-08-24T06:27:08;100102.28;;;29.16;59.34
80853;BME280;70270;43.434;28.338;2023-08-24T06:29:53;100051.34;;;29.02;61.20
80853;BME280;70270;43.434;28.338;2023-08-24T06:32:38;99985.00;;;28.42;62.56
80853;BME280;70270;43.434;28.338;2023-08-24T06:35:25;100105.38;;;29.14;60.59
80853;BME280;70270;43.434;28.338;2023-08-24T06:38:09;100104.16;;;28.90;59.83
80853;BME280;70270;43.434;28.338;2023-08-24T06:40:54;100101.72;;;28.66;60.25
80853;BME280;70270;43.434;28.338;2023-08-24T06:43:39;100114.72;;;28.40;60.27
80853;BME280;70270;43.434;28.338;2023-08-24T06:46:23;100008.09;;;28.03;62.63
80853;BME280;70270;43.434;28.338;2023-08-24T06:49:07;100115.13;;;28.55;65.06
80853;BME280;70270;43.434;28.338;2023-08-24T06:51:52;100091.31;;;28.49;64.66
80853;BME280;70270;43.434;28.338;2023-08-24T06:54:37;100119.88;;;28.86;65.89
80853;BME280;70270;43.434;28.338;2023-08-24T06:57:22;100087.38;;;28.72;64.46
80853;BME280;70270;43.434;28.338;2023-08-24T07:00:07;100114.00;;;28.65;64.31
80853;BME280;70270;43.434;28.338;2023-08-24T07:02:57;100105.75;;;28.82;62.64
80853;BME280;70270;43.434;28.338;2023-08-24T07:05:41;100021.91;;;28.39;60.83
80853;BME280;70270;43.434;28.338;2023-08-24T07:08:26;100113.75;;;29.14;59.53
80853;BME280;70270;43.434;28.338;2023-08-24T07:11:11;100125.31;;;28.91;57.86
80853;BME280;70270;43.434;28.338;2023-08-24T07:13:58;99935.56;;;27.41;60.42
80853;BME280;70270;43.434;28.338;2023-08-24T07:16:45;100140.06;;;28.52;62.31
80853;BME280;70270;43.434;28.338;2023-08-24T07:19:29;100027.03;;;28.15;60.34
80853;BME280;70270;43.434;28.338;2023-08-24T07:22:14;100143.03;;;28.86;64.03
80853;BME280;70270;43.434;28.338;2023-08-24T07:25:00;100146.94;;;29.16;64.90
80853;BME280;70270;43.434;28.338;2023-08-24T07:27:44;100001.44;;;28.13;64.63
80853;BME280;70270;43.434;28.338;2023-08-24T07:30:31;100151.75;;;28.85;63.97
80853;BME280;70270;43.434;28.338;2023-08-24T07:33:16;100156.56;;;28.70;66.54
80853;BME280;70270;43.434;28.338;2023-08-24T07:36:00;100144.50;;;28.83;66.65
80853;BME280;70270;43.434;28.338;2023-08-24T07:38:48;100144.03;;;28.37;69.75
80853;BME280;70270;43.434;28.338;2023-08-24T07:41:32;100122.16;;;28.53;68.78
80853;BME280;70270;43.434;28.338;2023-08-24T07:44:17;100135.00;;;28.85;67.55
80853;BME280;70270;43.434;28.338;2023-08-24T07:47:01;100144.59;;;29.01;68.01
80853;BME280;70270;43.434;28.338;2023-08-24T07:49:46;100149.00;;;29.02;67.93
80853;BME280;70270;43.434;28.338;2023-08-24T07:52:31;100146.16;;;28.62;69.09
80853;BME280;70270;43.434;28.338;2023-08-24T07:55:16;100122.63;;;28.46;69.07
80853;BME280;70270;43.434;28.338;2023-08-24T07:58:09;100160.72;;;28.81;68.19
80853;BME280;70270;43.434;28.338;2023-08-24T08:00:54;100086.50;;;28.10;69.60
80853;BME280;70270;43.434;28.338;2023-08-24T08:03:39;100177.66;;;28.32;70.43
80853;BME280;70270;43.434;28.338;2023-08-24T08:06:24;100123.03;;;28.09;70.64
80853;BME280;70270;43.434;28.338;2023-08-24T08:09:09;100147.47;;;28.56;69.80
80853;BME280;70270;43.434;28.338;2023-08-24T08:11:54;100044.75;;;27.74;69.84
80853;BME280;70270;43.434;28.338;2023-08-24T08:14:38;100159.09;;;28.58;70.33
80853;BME280;70270;43.434;28.338;2023-08-24T08:17:23;100160.41;;;28.52;70.32
80853;BME280;70270;43.434;28.338;2023-08-24T08:20:07;100160.06;;;28.76;69.71
80853;BME280;70270;43.434;28.338;2023-08-24T08:22:52;100183.34;;;28.71;69.15
80853;BME280;70270;43.434;28.338;2023-08-24T08:25:36;99975.38;;;27.42;69.98
80853;BME280;70270;43.434;28.338;2023-08-24T08:28:22;100166.13;;;28.78;69.88
80853;BME280;70270;43.434;28.338;2023-08-24T08:31:06;100138.41;;;28.81;69.73
80853;BME280;70270;43.434;28.338;2023-08-24T08:33:51;100131.28;;;29.06;68.44
80853;BME280;70270;43.434;28.338;2023-08-24T08:36:35;100157.03;;;28.95;68.89
80853;BME280;70270;43.434;28.338;2023-08-24T08:39:20;100075.19;;;28.68;68.79
80853;BME280;70270;43.434;28.338;2023-08-24T08:42:04;100144.38;;;29.45;64.54
80853;BME280;70270;43.434;28.338;2023-08-24T08:44:58;100155.22;;;29.38;66.49
80853;BME280;70270;43.434;28.338;2023-08-24T08:47:59;100148.34;;;29.44;67.17
80853;BME280;70270;43.434;28.338;2023-08-24T08:50:49;100145.56;;;29.44;67.31
80853;BME280;70270;43.434;28.338;2023-08-24T08:53:35;100155.44;;;29.11;66.99
80853;BME280;70270;43.434;28.338;2023-08-24T08:56:22;100161.53;;;28.51;69.08
80853;BME280;70270;43.434;28.338;2023-08-24T08:59:08;100149.44;;;28.33;70.57
80853;BME280;70270;43.434;28.338;2023-08-24T09:02:03;100166.97;;;28.56;69.61
80853;BME280;70270;43.434;28.338;2023-08-24T09:04:51;100161.88;;;28.58;69.99
80853;BME280;70270;43.434;28.338;2023-08-24T09:07:41;100157.97;;;28.59;70.05
80853;BME280;70270;43.434;28.338;2023-08-24T09:10:26;100163.13;;;28.97;68.94
80853;BME280;70270;43.434;28.338;2023-08-24T09:13:10;100170.50;;;28.93;68.89
80853;BME280;70270;43.434;28.338;2023-08-24T09:16:06;100150.78;;;29.28;66.75
80853;BME280;70270;43.434;28.338;2023-08-24T09:18:56;100180.94;;;29.26;65.88
80853;BME280;70270;43.434;28.338;2023-08-24T09:21:43;100170.75;;;29.22;64.99
80853;BME280;70270;43.434;28.338;2023-08-24T09:24:31;100183.00;;;29.04;64.12
80853;BME280;70270;43.434;28.338;2023-08-24T09:27:17;100199.22;;;29.02;66.66
80853;BME280;70270;43.434;28.338;2023-08-24T09:30:01;100177.06;;;29.36;61.88
80853;BME280;70270;43.434;28.338;2023-08-24T09:32:50;100161.38;;;29.18;62.82
80853;BME280;70270;43.434;28.338;2023-08-24T09:35:37;100167.09;;;29.52;62.28
80853;BME280;70270;43.434;28.338;2023-08-24T09:38:23;100163.69;;;29.72;58.64
80853;BME280;70270;43.434;28.338;2023-08-24T09:41:08;100161.72;;;29.73;60.30
80853;BME280;70270;43.434;28.338;2023-08-24T09:43:52;100147.34;;;29.40;61.05
80853;BME280;70270;43.434;28.338;2023-08-24T09:46:37;100131.13;;;29.03;61.89
80853;BME280;70270;43.434;28.338;2023-08-24T09:49:22;100079.81;;;28.81;62.68
80853;BME280;70270;43.434;28.338;2023-08-24T09:52:07;100161.16;;;29.45;61.61
80853;BME280;70270;43.434;28.338;2023-08-24T09:54:53;100183.56;;;29.80;60.85
80853;BME280;70270;43.434;28.338;2023-08-24T09:57:39;100182.81;;;29.31;64.69
80853;BME280;70270;43.434;28.338;2023-08-24T10:00:25;100143.97;;;29.21;61.43
80853;BME280;70270;43.434;28.338;2023-08-24T10:03:10;100163.78;;;29.50;61.16
80853;BME280;70270;43.434;28.338;2023-08-24T10:05:55;100182.59;;;29.84;60.15
80853;BME280;70270;43.434;28.338;2023-08-24T10:08:47;100109.78;;;29.07;59.97
80853;BME280;70270;43.434;28.338;2023-08-24T10:11:42;100190.06;;;29.49;61.81
80853;BME280;70270;43.434;28.338;2023-08-24T10:14:31;100191.22;;;29.40;57.30
80853;BME280;70270;43.434;28.338;2023-08-24T10:17:16;100153.63;;;29.54;58.24
80853;BME280;70270;43.434;28.338;2023-08-24T10:20:01;100176.38;;;29.87;54.54
80853;BME280;70270;43.434;28.338;2023-08-24T10:22:50;100165.03;;;29.92;53.77
80853;BME280;70270;43.434;28.338;2023-08-24T10:25:36;100167.50;;;30.11;47.38
80853;BME280;70270;43.434;28.338;2023-08-24T10:28:24;100174.41;;;30.05;53.12
80853;BME280;70270;43.434;28.338;2023-08-24T10:31:10;100144.44;;;30.31;55.66
80853;BME280;70270;43.434;28.338;2023-08-24T10:33:54;100162.03;;;30.32;54.49
80853;BME280;70270;43.434;28.338;2023-08-24T10:36:40;100143.16;;;30.29;55.93
80853;BME280;70270;43.434;28.338;2023-08-24T10:39:28;100035.66;;;29.74;53.03
80853;BME280;70270;43.434;28.338;2023-08-24T10:42:15;100133.44;;;30.43;51.18
80853;BME280;70270;43.434;28.338;2023-08-24T10:45:00;100128.66;;;30.52;54.50
80853;BME280;70270;43.434;28.338;2023-08-24T10:47:46;100036.78;;;29.82;54.13
80853;BME280;70270;43.434;28.338;2023-08-24T10:50:31;100036.00;;;29.64;53.60
80853;BME280;70270;43.434;28.338;2023-08-24T10:53:38;100138.91;;;29.97;55.61
80853;BME280;70270;43.434;28.338;2023-08-24T10:56:30;100144.44;;;30.31;56.50
80853;BME280;70270;43.434;28.338;2023-08-24T10:59:16;100112.53;;;30.32;53.63
80853;BME280;70270;43.434;28.338;2023-08-24T11:02:01;100028.41;;;29.91;53.01
80853;BME280;70270;43.434;28.338;2023-08-24T11:05:14;100107.56;;;30.55;53.82
80853;BME280;70270;43.434;28.338;2023-08-24T11:08:05;100116.66;;;30.43;54.20
80853;BME280;70270;43.434;28.338;2023-08-24T11:10:49;100117.44;;;29.49;61.13
80853;BME280;70270;43.434;28.338;2023-08-24T11:13:34;100097.59;;;29.85;59.88
80853;BME280;70270;43.434;28.338;2023-08-24T11:16:38;100106.00;;;29.77;60.79
80853;BME280;70270;43.434;28.338;2023-08-24T11:19:23;100104.50;;;29.45;62.23
80853;BME280;70270;43.434;28.338;2023-08-24T11:22:10;100089.66;;;29.27;64.23
80853;BME280;70270;43.434;28.338;2023-08-24T11:24:54;100084.94;;;28.79;65.91
80853;BME280;70270;43.434;28.338;2023-08-24T11:27:39;100092.38;;;28.93;64.96
80853;BME280;70270;43.434;28.338;2023-08-24T11:30:27;100083.69;;;28.63;65.88
80853;BME280;70270;43.434;28.338;2023-08-24T11:33:12;100038.84;;;28.51;64.91
80853;BME280;70270;43.434;28.338;2023-08-24T11:36:00;100062.31;;;28.98;63.56
80853;BME280;70270;43.434;28.338;2023-08-24T11:38:51;100048.28;;;29.20;64.00
80853;BME280;70270;43.434;28.338;2023-08-24T11:41:36;100039.03;;;29.03;63.44
80853;BME280;70270;43.434;28.338;2023-08-24T11:44:23;100043.53;;;29.38;63.83
80853;BME280;70270;43.434;28.338;2023-08-24T11:47:11;100046.47;;;29.33;64.07
80853;BME280;70270;43.434;28.338;2023-08-24T11:49:56;99913.50;;;28.37;65.20
80853;BME280;70270;43.434;28.338;2023-08-24T11:52:41;100026.13;;;29.58;63.80
80853;BME280;70270;43.434;28.338;2023-08-24T11:55:26;100040.59;;;29.69;63.13
80853;BME280;70270;43.434;28.338;2023-08-24T11:58:15;99950.88;;;29.53;62.58
80853;BME280;70270;43.434;28.338;2023-08-24T12:01:03;100055.56;;;29.73;62.77
80853;BME280;70270;43.434;28.338;2023-08-24T12:03:48;99952.34;;;29.25;64.03
80853;BME280;70270;43.434;28.338;2023-08-24T12:06:32;100041.72;;;29.42;64.87
80853;BME280;70270;43.434;28.338;2023-08-24T12:09:17;100028.91;;;29.67;63.84
80853;BME280;70270;43.434;28.338;2023-08-24T12:12:01;100037.63;;;29.65;62.93
80853;BME280;70270;43.434;28.338;2023-08-24T12:14:48;100011.69;;;29.65;62.61
80853;BME280;70270;43.434;28.338;2023-08-24T12:17:42;100025.66;;;29.48;63.77
80853;BME280;70270;43.434;28.338;2023-08-24T12:20:30;99993.91;;;29.26;64.85
80853;BME280;70270;43.434;28.338;2023-08-24T12:23:14;99993.53;;;28.94;66.29
80853;BME280;70270;43.434;28.338;2023-08-24T12:25:59;100004.25;;;28.52;66.71
80853;BME280;70270;43.434;28.338;2023-08-24T12:28:43;99983.88;;;28.43;65.37
80853;BME280;70270;43.434;28.338;2023-08-24T12:31:29;99973.00;;;28.24;65.68
80853;BME280;70270;43.434;28.338;2023-08-24T12:34:16;99920.75;;;28.08;65.46
80853;BME280;70270;43.434;28.338;2023-08-24T12:37:01;99994.16;;;28.73;64.69
80853;BME280;70270;43.434;28.338;2023-08-24T12:39:45;99986.13;;;28.72;65.24
80853;BME280;70270;43.434;28.338;2023-08-24T12:42:30;99980.72;;;28.75;65.99
80853;BME280;70270;43.434;28.338;2023-08-24T12:45:14;99983.22;;;28.46;67.15
80853;BME280;70270;43.434;28.338;2023-08-24T12:47:59;99986.50;;;28.09;68.16
80853;BME280;70270;43.434;28.338;2023-08-24T12:50:43;99983.50;;;28.05;68.01
80853;BME280;70270;43.434;28.338;2023-08-24T12:53:28;99981.34;;;28.02;68.96
80853;BME280;70270;43.434;28.338;2023-08-24T12:56:15;99992.44;;;28.16;68.36
80853;BME280;70270;43.434;28.338;2023-08-24T12:59:01;99997.75;;;28.04;69.20
80853;BME280;70270;43.434;28.338;2023-08-24T13:01:46;99968.44;;;27.53;70.49
80853;BME280;70270;43.434;28.338;2023-08-24T13:04:31;99992.47;;;27.71;70.86
80853;BME280;70270;43.434;28.338;2023-08-24T13:07:16;100002.00;;;28.01;70.16
80853;BME280;70270;43.434;28.338;2023-08-24T13:10:01;99906.22;;;27.88;68.84
80853;BME280;70270;43.434;28.338;2023-08-24T13:12:46;99883.78;;;27.54;68.74
80853;BME280;70270;43.434;28.338;2023-08-24T13:15:30;99994.19;;;28.43;68.36
80853;BME280;70270;43.434;28.338;2023-08-24T13:18:15;99992.63;;;28.19;68.37
80853;BME280;70270;43.434;28.338;2023-08-24T13:20:59;99973.53;;;27.82;69.87
80853;BME280;70270;43.434;28.338;2023-08-24T13:23:43;99899.03;;;27.34;69.56
80853;BME280;70270;43.434;28.338;2023-08-24T13:26:28;99933.16;;;28.02;67.99
80853;BME280;70270;43.434;28.338;2023-08-24T13:29:13;100004.91;;;28.18;69.32
80853;BME280;70270;43.434;28.338;2023-08-24T13:31:57;100018.44;;;27.80;70.91
80853;BME280;70270;43.434;28.338;2023-08-24T13:34:42;100017.22;;;27.51;71.87
80853;BME280;70270;43.434;28.338;2023-08-24T13:37:31;100011.00;;;27.54;72.15
80853;BME280;70270;43.434;28.338;2023-08-24T13:40:17;99997.72;;;27.73;71.44
80853;BME280;70270;43.434;28.338;2023-08-24T13:43:01;100014.81;;;27.80;71.30
80853;BME280;70270;43.434;28.338;2023-08-24T13:45:48;99991.53;;;27.76;71.28
80853;BME280;70270;43.434;28.338;2023-08-24T13:48:33;99969.81;;;27.86;70.31
80853;BME280;70270;43.434;28.338;2023-08-24T13:51:18;100002.63;;;28.20;69.59
80853;BME280;70270;43.434;28.338;2023-08-24T13:54:11;100002.66;;;28.29;69.48
80853;BME280;70270;43.434;28.338;2023-08-24T13:56:56;100001.28;;;28.57;68.29
80853;BME280;70270;43.434;28.338;2023-08-24T13:59:44;99999.56;;;28.70;67.92
80853;BME280;70270;43.434;28.338;2023-08-24T14:02:29;100007.81;;;28.13;70.10
80853;BME280;70270;43.434;28.338;2023-08-24T14:05:16;99919.72;;;27.20;71.22
80853;BME280;70270;43.434;28.338;2023-08-24T14:08:04;99993.31;;;28.03;70.23
80853;BME280;70270;43.434;28.338;2023-08-24T14:10:49;99966.97;;;28.40;68.51
80853;BME280;70270;43.434;28.338;2023-08-24T14:13:33;99900.34;;;27.37;70.72
80853;BME280;70270;43.434;28.338;2023-08-24T14:16:18;100005.59;;;28.02;70.77
80853;BME280;70270;43.434;28.338;2023-08-24T14:19:02;100006.09;;;28.26;69.97
80853;BME280;70270;43.434;28.338;2023-08-24T14:21:47;100013.00;;;27.75;72.30